Time;durP1;ratioP1;P1;durP2;ratioP2;P2;SDS_P1;SDS_P2;PMS_P1;PMS_P2;Temp;Humidity;BMP_temperature;BMP_pressure;BME280_temperature;BME280_humidity;BME280_pressure;Samples;Min_cycle;Max_cycle;Signal;HPM_P1;HPM_P2
2024/03/22 00:01:19;;;;;;;7.47;5.40;;;;;;;;;;2101692;28;20115;-65
2024/03/22 00:02:38;;;;;;;6.65;6.05;;;;;;;;;;2102379;28;20028;-65
2024/03/22 00:03:57;;;;;;;6.47;5.88;;;;;;;;;;2102253;28;20032;-65
2024/03/22 00:05:17;;;;;;;6.18;5.68;;;;;;;;;;2092933;28;20039;-65
2024/03/22 00:06:35;;;;;;;7.35;6.75;;;;;;;;;;2098425;28;20032;-65
2024/03/22 00:07:54;;;;;;;6.93;6.35;;;;;;;;;;2093357;28;20060;-65
2024/03/22 00:09:13;;;;;;;7.50;6.25;;;;;;;;;;2099172;28;20024;-65
2024/03/22 00:10:32;;;;;;;6.75;6.15;;;;;;;;;;2101968;28;20036;-65
2024/03/22 00:11:51;;;;;;;7.07;6.38;;;;;;;;;;2102211;28;20401;-65
2024/03/22 00:13:10;;;;;;;9.02;6.35;;;;;;;;;;2101425;28;20037;-65
2024/03/22 00:14:29;;;;;;;7.35;6.63;;;;;;;;;;2102025;28;20103;-65
2024/03/22 00:15:48;;;;;;;6.90;6.20;;;;;;;;;;2092964;28;20024;-65
2024/03/22 00:17:08;;;;;;;7.57;6.72;;;;;;;;;;2098759;28;20439;-65
2024/03/22 00:18:27;;;;;;;6.60;6.03;;;;;;;;;;2102517;28;20477;-67
2024/03/22 00:19:46;;;;;;;7.43;6.10;;;;;;;;;;2101590;28;20028;-66
2024/03/22 00:21:04;;;;;;;8.27;6.20;;;;;;;;;;2101903;28;20028;-66
2024/03/22 00:22:23;;;;;;;7.90;6.45;;;;;;;;;;2102751;28;20036;-66
2024/03/22 00:23:43;;;;;;;7.20;6.50;;;;;;;;;;2102464;28;20032;-65
2024/03/22 00:25:02;;;;;;;7.43;6.55;;;;;;;;;;2101945;28;20062;-65
2024/03/22 00:26:21;;;;;;;7.43;6.65;;;;;;;;;;2101747;28;20025;-66
2024/03/22 00:27:40;;;;;;;7.03;6.43;;;;;;;;;;2102257;28;20482;-66
2024/03/22 00:28:59;;;;;;;8.48;6.55;;;;;;;;;;2102703;28;20032;-65
2024/03/22 00:30:21;;;;;;;7.97;6.38;;;;;;;;;;2102503;28;20033;-65
2024/03/22 00:31:40;;;;;;;7.03;6.20;;;;;;;;;;2101223;28;20024;-66
2024/03/22 00:32:59;;;;;;;8.68;6.75;;;;;;;;;;2102219;28;20024;-65
2024/03/22 00:34:19;;;;;;;6.82;6.15;;;;;;;;;;2102177;28;20028;-66
2024/03/22 00:35:38;;;;;;;6.88;6.18;;;;;;;;;;2101706;28;20478;-65
2024/03/22 00:36:57;;;;;;;7.30;6.50;;;;;;;;;;2093133;28;20060;-65
2024/03/22 00:38:16;;;;;;;7.72;5.97;;;;;;;;;;2098407;28;20029;-65
2024/03/22 00:39:35;;;;;;;6.88;6.28;;;;;;;;;;2091313;28;20028;-65
2024/03/22 00:40:54;;;;;;;6.63;5.95;;;;;;;;;;2098492;28;20024;-65
2024/03/22 00:42:13;;;;;;;6.53;5.93;;;;;;;;;;2092580;28;20041;-65
2024/03/22 00:43:32;;;;;;;7.32;6.50;;;;;;;;;;2098544;28;20023;-66
2024/03/22 00:44:51;;;;;;;6.03;5.43;;;;;;;;;;2102247;28;20107;-65
2024/03/22 00:46:10;;;;;;;9.90;7.68;;;;;;;;;;2102377;28;20060;-66
2024/03/22 00:47:29;;;;;;;7.03;6.07;;;;;;;;;;2101851;28;20032;-65
2024/03/22 00:48:48;;;;;;;7.30;6.00;;;;;;;;;;2101843;28;20029;-65
2024/03/22 00:50:07;;;;;;;8.05;5.40;;;;;;;;;;2102018;28;20032;-66
2024/03/22 00:51:26;;;;;;;7.80;6.18;;;;;;;;;;2100590;28;20582;-65
2024/03/22 00:52:45;;;;;;;7.35;5.75;;;;;;;;;;2101941;28;20021;-65
2024/03/22 00:54:04;;;;;;;6.32;5.47;;;;;;;;;;2101613;28;20029;-65
2024/03/22 00:55:24;;;;;;;7.00;6.30;;;;;;;;;;2101322;28;20393;-65
2024/03/22 00:56:43;;;;;;;7.53;6.68;;;;;;;;;;2102451;28;20040;-66
2024/03/22 00:58:02;;;;;;;9.15;6.15;;;;;;;;;;2102483;28;20024;-65
2024/03/22 00:59:21;;;;;;;6.30;5.70;;;;;;;;;;2102287;28;20029;-63
2024/03/22 01:00:40;;;;;;;8.18;6.55;;;;;;;;;;2102344;28;20032;-66
2024/03/22 01:01:59;;;;;;;7.55;6.72;;;;;;;;;;2101603;28;20028;-66
2024/03/22 01:03:18;;;;;;;12.20;5.95;;;;;;;;;;2101320;28;20045;-64
2024/03/22 01:04:37;;;;;;;6.10;5.50;;;;;;;;;;2101682;28;20397;-64
2024/03/22 01:05:57;;;;;;;6.03;5.32;;;;;;;;;;2102232;28;20037;-63
2024/03/22 01:07:15;;;;;;;8.65;6.28;;;;;;;;;;2101516;28;20028;-69
2024/03/22 01:08:34;;;;;;;7.47;6.43;;;;;;;;;;2101482;28;20021;-64
2024/03/22 01:09:53;;;;;;;7.50;6.68;;;;;;;;;;2101439;28;20481;-64
2024/03/22 01:11:12;;;;;;;6.78;6.15;;;;;;;;;;2100334;28;20036;-64
2024/03/22 01:12:31;;;;;;;8.95;6.55;;;;;;;;;;2101417;28;20024;-64
2024/03/22 01:13:50;;;;;;;9.35;6.57;;;;;;;;;;2101805;28;20033;-64
2024/03/22 01:15:09;;;;;;;7.53;5.78;;;;;;;;;;2102623;28;20059;-64
2024/03/22 01:16:28;;;;;;;8.30;6.55;;;;;;;;;;2101613;28;20059;-64
2024/03/22 01:17:47;;;;;;;7.18;6.40;;;;;;;;;;2101110;28;20021;-64
2024/03/22 01:19:06;;;;;;;11.10;5.93;;;;;;;;;;2101580;28;20033;-64
2024/03/22 01:20:25;;;;;;;7.85;5.95;;;;;;;;;;2101779;28;20080;-64
2024/03/22 01:21:44;;;;;;;7.95;6.20;;;;;;;;;;2101696;28;20029;-65
2024/03/22 01:23:04;;;;;;;7.35;6.30;;;;;;;;;;2101338;28;20028;-64
2024/03/22 01:24:23;;;;;;;9.43;7.03;;;;;;;;;;2101558;28;20028;-64
2024/03/22 01:25:42;;;;;;;8.18;6.07;;;;;;;;;;2102230;28;20032;-64
2024/03/22 01:27:01;;;;;;;9.35;6.65;;;;;;;;;;2101711;28;20036;-64
2024/03/22 01:28:20;;;;;;;9.82;6.82;;;;;;;;;;2101017;28;20040;-64
2024/03/22 01:29:39;;;;;;;7.18;6.35;;;;;;;;;;2101190;28;20044;-64
2024/03/22 01:30:57;;;;;;;9.48;6.43;;;;;;;;;;2101312;28;20029;-64
2024/03/22 01:32:16;;;;;;;9.05;6.63;;;;;;;;;;2093245;28;20108;-64
2024/03/22 01:33:35;;;;;;;10.13;6.65;;;;;;;;;;2098000;28;20021;-64
2024/03/22 01:34:54;;;;;;;10.02;6.80;;;;;;;;;;2091661;28;20024;-64
2024/03/22 01:36:13;;;;;;;9.10;7.35;;;;;;;;;;2092782;28;20118;-64
2024/03/22 01:37:32;;;;;;;14.50;6.88;;;;;;;;;;2089282;28;20049;-65
2024/03/22 01:38:51;;;;;;;8.95;6.63;;;;;;;;;;2098381;28;20481;-65
2024/03/22 01:40:10;;;;;;;8.77;6.65;;;;;;;;;;2101166;28;20036;-64
2024/03/22 01:41:29;;;;;;;12.00;7.10;;;;;;;;;;2101789;28;20056;-64
2024/03/22 01:42:52;;;;;;;8.45;6.57;;;;;;;;;;2101649;28;20024;-64
2024/03/22 01:44:13;;;;;;;6.57;5.88;;;;;;;;;;2092657;28;20032;-65
2024/03/22 01:45:33;;;;;;;7.97;5.88;;;;;;;;;;2098282;28;20103;-65
2024/03/22 01:46:52;;;;;;;7.78;6.30;;;;;;;;;;2101696;28;20040;-65
2024/03/22 01:48:11;;;;;;;9.20;5.70;;;;;;;;;;2102144;28;20028;-65
2024/03/22 01:49:30;;;;;;;10.90;6.60;;;;;;;;;;2101169;28;20127;-65
2024/03/22 01:50:50;;;;;;;8.77;6.40;;;;;;;;;;2091982;28;20111;-66
2024/03/22 01:52:08;;;;;;;7.95;6.60;;;;;;;;;;2096475;28;20409;-65
2024/03/22 01:53:28;;;;;;;8.70;6.15;;;;;;;;;;2101516;28;20021;-65
2024/03/22 01:54:47;;;;;;;12.15;6.53;;;;;;;;;;2101891;28;20106;-65
2024/03/22 01:56:07;;;;;;;9.90;6.32;;;;;;;;;;2101298;28;20107;-65
2024/03/22 01:57:27;;;;;;;11.55;6.20;;;;;;;;;;2101002;28;20028;-65
2024/03/22 01:58:46;;;;;;;9.20;5.75;;;;;;;;;;2100951;28;20032;-65
2024/03/22 02:00:06;;;;;;;10.20;5.93;;;;;;;;;;2092239;28;20037;-65
2024/03/22 02:01:24;;;;;;;8.00;5.65;;;;;;;;;;2095393;28;20394;-65
2024/03/22 02:02:43;;;;;;;6.68;5.60;;;;;;;;;;2099902;28;20533;-65
2024/03/22 02:04:02;;;;;;;6.43;5.25;;;;;;;;;;2100201;28;20490;-65
2024/03/22 02:05:21;;;;;;;12.43;6.07;;;;;;;;;;2101955;28;20057;-65
2024/03/22 02:06:40;;;;;;;7.05;5.50;;;;;;;;;;2101789;28;20390;-65
2024/03/22 02:07:59;;;;;;;8.40;5.53;;;;;;;;;;2101442;28;20110;-65
2024/03/22 02:09:20;;;;;;;6.50;5.38;;;;;;;;;;2092231;28;20490;-65
2024/03/22 02:10:39;;;;;;;8.27;5.50;;;;;;;;;;2098611;28;20033;-65
2024/03/22 02:11:58;;;;;;;7.43;5.53;;;;;;;;;;2101448;28;20024;-65
2024/03/22 02:13:17;;;;;;;7.78;5.38;;;;;;;;;;2101408;28;20343;-65
2024/03/22 02:14:36;;;;;;;5.40;4.90;;;;;;;;;;2100074;28;20025;-65
2024/03/22 02:15:55;;;;;;;9.73;5.43;;;;;;;;;;2091492;28;20029;-65
2024/03/22 02:17:14;;;;;;;6.13;4.82;;;;;;;;;;2098125;28;20473;-65
2024/03/22 02:18:33;;;;;;;5.93;4.75;;;;;;;;;;2100716;28;20039;-65
2024/03/22 02:19:52;;;;;;;7.57;5.40;;;;;;;;;;2101141;28;20032;-65
2024/03/22 02:21:11;;;;;;;5.20;4.70;;;;;;;;;;2101400;28;20025;-65
2024/03/22 02:22:30;;;;;;;8.23;4.75;;;;;;;;;;2101297;28;20024;-65
2024/03/22 02:23:48;;;;;;;5.72;5.10;;;;;;;;;;2102913;28;20401;-65
2024/03/22 02:25:08;;;;;;;9.77;5.53;;;;;;;;;;2102918;28;20029;-65
2024/03/22 02:26:27;;;;;;;5.07;4.63;;;;;;;;;;2101860;28;20028;-65
2024/03/22 02:27:50;;;;;;;5.22;4.72;;;;;;;;;;2103223;28;20095;-65
2024/03/22 02:29:09;;;;;;;;;;;;;;;;;;2104003;28;20032;-65
2024/03/22 02:30:28;;;;;;;8.75;4.43;;;;;;;;;;2093769;28;19905;-65
2024/03/22 02:31:47;;;;;;;4.85;4.35;;;;;;;;;;2098710;28;20485;-65
2024/03/22 02:33:06;;;;;;;4.80;4.15;;;;;;;;;;2102711;28;20032;-65
2024/03/22 02:34:25;;;;;;;6.20;4.13;;;;;;;;;;2103279;28;20059;-65
2024/03/22 02:35:45;;;;;;;6.18;4.53;;;;;;;;;;2102715;28;20093;-65
2024/03/22 02:37:04;;;;;;;5.63;4.43;;;;;;;;;;2102833;28;20106;-65
2024/03/22 02:38:23;;;;;;;4.57;4.13;;;;;;;;;;2103001;28;20060;-65
2024/03/22 02:39:42;;;;;;;4.35;3.95;;;;;;;;;;2102897;28;20024;-65
2024/03/22 02:41:02;;;;;;;4.57;3.80;;;;;;;;;;2102594;28;20020;-65
2024/03/22 02:42:21;;;;;;;4.95;4.22;;;;;;;;;;2100604;28;20032;-65
2024/03/22 02:43:40;;;;;;;4.97;4.25;;;;;;;;;;2101677;28;20028;-65
2024/03/22 02:44:59;;;;;;;7.80;4.68;;;;;;;;;;2103378;28;20036;-67
2024/03/22 02:46:18;;;;;;;5.30;4.57;;;;;;;;;;2103016;28;20037;-65
2024/03/22 02:47:37;;;;;;;4.72;4.05;;;;;;;;;;2102552;28;20402;-65
2024/03/22 02:48:56;;;;;;;4.63;4.20;;;;;;;;;;2102661;28;20028;-64
2024/03/22 02:50:15;;;;;;;4.45;4.05;;;;;;;;;;2085013;28;20121;-67
2024/03/22 02:51:34;;;;;;;4.68;4.28;;;;;;;;;;2089532;28;20069;-64
2024/03/22 02:52:53;;;;;;;4.35;3.95;;;;;;;;;;2087895;28;20029;-65
2024/03/22 02:54:11;;;;;;;5.75;4.30;;;;;;;;;;2094249;28;20025;-64
2024/03/22 02:55:36;;;;;;;6.00;4.45;;;;;;;;;;2095023;28;20021;-64
2024/03/22 02:56:54;;;;;;;5.60;4.32;;;;;;;;;;2093502;28;20029;-64
2024/03/22 02:58:13;;;;;;;4.78;4.03;;;;;;;;;;2095258;28;20032;-64
2024/03/22 02:59:32;;;;;;;5.07;4.13;;;;;;;;;;2093749;28;20394;-64
2024/03/22 03:00:52;;;;;;;5.57;4.07;;;;;;;;;;2093949;28;20044;-64
2024/03/22 03:02:11;;;;;;;5.25;3.70;;;;;;;;;;2085333;28;20407;-65
2024/03/22 03:03:30;;;;;;;4.53;3.88;;;;;;;;;;2083791;28;20029;-64
2024/03/22 03:04:49;;;;;;;5.65;4.15;;;;;;;;;;2091129;28;20029;-64
2024/03/22 03:06:08;;;;;;;5.88;3.92;;;;;;;;;;2094189;28;20032;-64
2024/03/22 03:07:27;;;;;;;4.78;3.92;;;;;;;;;;2093379;28;20025;-64
2024/03/22 03:08:46;;;;;;;4.32;3.72;;;;;;;;;;2085708;28;20510;-64
2024/03/22 03:10:06;;;;;;;3.65;3.35;;;;;;;;;;2090752;28;20028;-65
2024/03/22 03:11:25;;;;;;;8.98;6.65;;;;;;;;;;2093707;28;20506;-65
2024/03/22 03:12:43;;;;;;;5.50;3.90;;;;;;;;;;2094081;28;20538;-64
2024/03/22 03:14:02;;;;;;;4.72;4.20;;;;;;;;;;2095325;28;20021;-65
2024/03/22 03:15:21;;;;;;;4.70;3.90;;;;;;;;;;2086318;28;20505;-64
2024/03/22 03:16:40;;;;;;;5.20;4.45;;;;;;;;;;2089338;28;20111;-65
2024/03/22 03:17:59;;;;;;;3.58;3.28;;;;;;;;;;2093218;28;20029;-64
2024/03/22 03:19:18;;;;;;;3.90;3.60;;;;;;;;;;2093691;28;20024;-65
2024/03/22 03:20:37;;;;;;;5.70;3.97;;;;;;;;;;2094551;28;20033;-64
2024/03/22 03:21:56;;;;;;;3.92;3.53;;;;;;;;;;2094300;28;20028;-64
2024/03/22 03:23:15;;;;;;;3.65;3.35;;;;;;;;;;2092894;28;20028;-64
2024/03/22 03:24:34;;;;;;;4.00;3.70;;;;;;;;;;2094316;28;20434;-64
2024/03/22 03:25:53;;;;;;;4.55;3.80;;;;;;;;;;2094660;28;20494;-65
2024/03/22 03:27:12;;;;;;;4.22;3.80;;;;;;;;;;2093426;28;20051;-65
2024/03/22 03:28:31;;;;;;;3.53;3.22;;;;;;;;;;2094240;28;20036;-64
2024/03/22 03:29:50;;;;;;;4.00;3.70;;;;;;;;;;2093635;28;20021;-65
2024/03/22 03:31:09;;;;;;;3.85;3.55;;;;;;;;;;2094285;28;20032;-65
2024/03/22 03:32:28;;;;;;;3.60;3.35;;;;;;;;;;2093530;28;20024;-65
2024/03/22 03:33:47;;;;;;;3.42;3.13;;;;;;;;;;2093296;28;20032;-64
2024/03/22 03:35:06;;;;;;;3.55;3.25;;;;;;;;;;2093274;28;20033;-65
2024/03/22 03:36:25;;;;;;;3.60;3.30;;;;;;;;;;2094546;28;20486;-66
2024/03/22 03:37:43;;;;;;;3.30;3.08;;;;;;;;;;2093605;28;20033;-64
2024/03/22 03:39:03;;;;;;;3.95;3.53;;;;;;;;;;2094132;28;20395;-64
2024/03/22 03:40:24;;;;;;;3.45;3.15;;;;;;;;;;2093540;28;20021;-64
2024/03/22 03:41:43;;;;;;;4.50;3.47;;;;;;;;;;2093461;28;20029;-65
2024/03/22 03:43:02;;;;;;;3.70;3.40;;;;;;;;;;2094793;28;20044;-64
2024/03/22 03:44:21;;;;;;;4.28;3.80;;;;;;;;;;2093863;28;20438;-65
2024/03/22 03:45:40;;;;;;;4.45;4.05;;;;;;;;;;2093266;28;20104;-64
2024/03/22 03:47:02;;;;;;;4.28;3.72;;;;;;;;;;2093460;28;20037;-64
2024/03/22 03:48:21;;;;;;;3.90;3.60;;;;;;;;;;2085647;28;20030;-64
2024/03/22 03:49:39;;;;;;;3.85;3.55;;;;;;;;;;2095315;28;20035;-64
2024/03/22 03:51:03;;;;;;;4.35;3.33;;;;;;;;;;2101815;28;20115;-64
2024/03/22 03:52:22;;;;;;;3.78;3.47;;;;;;;;;;2102377;28;20040;-64
2024/03/22 03:53:41;;;;;;;3.63;3.33;;;;;;;;;;2102100;28;20024;-65
2024/03/22 03:55:00;;;;;;;4.13;3.83;;;;;;;;;;2101661;28;20024;-64
2024/03/22 03:56:19;;;;;;;3.70;3.22;;;;;;;;;;2100923;28;20028;-65
2024/03/22 03:57:38;;;;;;;5.95;3.53;;;;;;;;;;2101494;28;20021;-64
2024/03/22 03:58:57;;;;;;;3.80;3.50;;;;;;;;;;2102679;28;20048;-64
2024/03/22 04:00:17;;;;;;;5.18;3.83;;;;;;;;;;2093710;28;20490;-64
2024/03/22 04:01:36;;;;;;;3.95;3.55;;;;;;;;;;2098559;28;20036;-64
2024/03/22 04:02:55;;;;;;;4.53;3.60;;;;;;;;;;2102073;28;20100;-64
2024/03/22 04:04:14;;;;;;;3.63;3.35;;;;;;;;;;2102496;28;20129;-64
2024/03/22 04:05:33;;;;;;;3.67;3.30;;;;;;;;;;2102744;28;20162;-64
2024/03/22 04:06:52;;;;;;;3.97;3.53;;;;;;;;;;2101884;28;20123;-64
2024/03/22 04:08:11;;;;;;;3.92;3.60;;;;;;;;;;2101463;28;20028;-65
2024/03/22 04:09:31;;;;;;;4.00;3.60;;;;;;;;;;2102073;28;20497;-65
2024/03/22 04:10:53;;;;;;;4.32;4.03;;;;;;;;;;2102782;28;20489;-65
2024/03/22 04:12:13;;;;;;;3.65;3.35;;;;;;;;;;2101509;28;20040;-64
2024/03/22 04:13:33;;;;;;;3.45;3.25;;;;;;;;;;2092997;28;20424;-64
2024/03/22 04:14:52;;;;;;;4.03;3.60;;;;;;;;;;2097854;28;20024;-65
2024/03/22 04:16:11;;;;;;;4.22;3.88;;;;;;;;;;2102024;28;20036;-66
2024/03/22 04:17:30;;;;;;;4.28;3.88;;;;;;;;;;2101599;28;20032;-66
2024/03/22 04:18:49;;;;;;;4.45;4.05;;;;;;;;;;2101923;28;20059;-64
2024/03/22 04:20:08;;;;;;;4.00;3.60;;;;;;;;;;2101474;28;20481;-65
2024/03/22 04:21:27;;;;;;;3.70;3.40;;;;;;;;;;2102085;28;20036;-64
2024/03/22 04:22:48;;;;;;;12.85;10.27;;;;;;;;;;2101857;28;20032;-64
2024/03/22 04:24:07;;;;;;;6.47;5.22;;;;;;;;;;2101916;28;20016;-65
2024/03/22 04:25:26;;;;;;;17.60;12.05;;;;;;;;;;2101520;28;20115;-64
2024/03/22 04:26:45;;;;;;;4.55;4.15;;;;;;;;;;2102709;28;20446;-64
2024/03/22 04:28:04;;;;;;;3.92;3.63;;;;;;;;;;2101265;28;20024;-65
2024/03/22 04:29:23;;;;;;;4.13;3.80;;;;;;;;;;2101425;28;20520;-64
2024/03/22 04:30:42;;;;;;;3.78;3.45;;;;;;;;;;2101712;28;20036;-65
2024/03/22 04:32:01;;;;;;;3.90;3.58;;;;;;;;;;2102202;28;20032;-64
2024/03/22 04:33:21;;;;;;;3.80;3.45;;;;;;;;;;2093808;28;20024;-66
2024/03/22 04:34:43;;;;;;;3.70;3.28;;;;;;;;;;2098067;28;20056;-65
2024/03/22 04:36:02;;;;;;;5.63;3.78;;;;;;;;;;2101374;28;20024;-64
2024/03/22 04:37:21;;;;;;;3.60;3.30;;;;;;;;;;2101997;28;20036;-65
2024/03/22 04:38:40;;;;;;;4.50;3.35;;;;;;;;;;2102098;28;20107;-65
2024/03/22 04:39:59;;;;;;;4.85;3.65;;;;;;;;;;2102285;28;20028;-65
2024/03/22 04:41:18;;;;;;;3.95;3.65;;;;;;;;;;2102636;28;20032;-65
2024/03/22 04:42:37;;;;;;;4.10;2.95;;;;;;;;;;2092473;28;20044;-65
2024/03/22 04:43:56;;;;;;;4.05;3.45;;;;;;;;;;2097509;28;20024;-65
2024/03/22 04:45:15;;;;;;;4.05;3.65;;;;;;;;;;2101617;28;20032;-65
2024/03/22 04:46:34;;;;;;;4.60;4.10;;;;;;;;;;2102085;28;20493;-65
2024/03/22 04:47:53;;;;;;;5.65;4.00;;;;;;;;;;2102498;28;20040;-65
2024/03/22 04:49:12;;;;;;;6.07;3.25;;;;;;;;;;2101778;28;20435;-65
2024/03/22 04:50:31;;;;;;;4.47;4.03;;;;;;;;;;2101407;28;20067;-65
2024/03/22 04:51:50;;;;;;;4.68;4.28;;;;;;;;;;2101503;28;20036;-65
2024/03/22 04:53:09;;;;;;;5.38;3.85;;;;;;;;;;2101753;28;20024;-65
2024/03/22 04:54:28;;;;;;;4.13;3.75;;;;;;;;;;2092632;28;20025;-66
2024/03/22 04:55:47;;;;;;;9.52;4.00;;;;;;;;;;2098228;28;20518;-65
2024/03/22 04:57:06;;;;;;;4.55;4.15;;;;;;;;;;2101550;28;20032;-66
2024/03/22 04:58:25;;;;;;;4.35;4.05;;;;;;;;;;2101624;28;20033;-65
2024/03/22 04:59:44;;;;;;;4.30;3.95;;;;;;;;;;2100714;28;20046;-66
2024/03/22 05:01:03;;;;;;;4.32;3.50;;;;;;;;;;2101426;28;20025;-65
2024/03/22 05:02:21;;;;;;;4.07;3.72;;;;;;;;;;2102468;28;20032;-65
2024/03/22 05:03:41;;;;;;;4.55;4.13;;;;;;;;;;2092748;28;20033;-66
2024/03/22 05:05:00;;;;;;;5.35;4.20;;;;;;;;;;2089314;28;20032;-65
2024/03/22 05:06:18;;;;;;;4.63;4.22;;;;;;;;;;2097428;28;20149;-66
2024/03/22 05:07:38;;;;;;;6.03;4.32;;;;;;;;;;2101241;28;20052;-66
2024/03/22 05:08:56;;;;;;;4.90;4.40;;;;;;;;;;2102080;28;20028;-65
2024/03/22 05:10:16;;;;;;;4.75;4.35;;;;;;;;;;2102019;28;20017;-65
2024/03/22 05:11:36;;;;;;;5.80;4.20;;;;;;;;;;2101719;28;20032;-65
2024/03/22 05:12:55;;;;;;;4.03;3.72;;;;;;;;;;2099665;28;20409;-65
2024/03/22 05:14:14;;;;;;;5.15;4.00;;;;;;;;;;2101478;28;20032;-65
2024/03/22 05:15:33;;;;;;;5.13;4.20;;;;;;;;;;2101722;28;20398;-65
2024/03/22 05:16:52;;;;;;;4.25;3.95;;;;;;;;;;2101065;28;20029;-65
2024/03/22 05:18:11;;;;;;;4.70;4.38;;;;;;;;;;2101551;28;20031;-66
2024/03/22 05:19:31;;;;;;;5.10;4.65;;;;;;;;;;2092589;28;20056;-65
2024/03/22 05:20:50;;;;;;;7.63;4.28;;;;;;;;;;2098536;28;20394;-66
2024/03/22 05:22:08;;;;;;;4.57;4.18;;;;;;;;;;2101079;28;20032;-66
2024/03/22 05:23:27;;;;;;;6.60;4.60;;;;;;;;;;2092432;28;20028;-65
2024/03/22 05:24:46;;;;;;;6.25;4.40;;;;;;;;;;2088853;28;20033;-66
2024/03/22 05:26:05;;;;;;;5.00;4.50;;;;;;;;;;2098143;28;20031;-65
2024/03/22 05:27:24;;;;;;;4.90;4.50;;;;;;;;;;2091996;28;20041;-66
2024/03/22 05:28:42;;;;;;;6.82;4.65;;;;;;;;;;2088585;28;20024;-65
2024/03/22 05:30:03;;;;;;;5.00;4.32;;;;;;;;;;2096935;28;20021;-66
2024/03/22 05:31:23;;;;;;;5.95;4.00;;;;;;;;;;2092251;28;20037;-66
2024/03/22 05:32:42;;;;;;;5.10;4.60;;;;;;;;;;2097265;28;20032;-66
2024/03/22 05:34:01;;;;;;;6.57;4.63;;;;;;;;;;2099940;28;20032;-65
2024/03/22 05:35:20;;;;;;;6.00;4.18;;;;;;;;;;2101395;28;20024;-65
2024/03/22 05:36:39;;;;;;;7.20;4.85;;;;;;;;;;2101348;28;20025;-65
2024/03/22 05:37:58;;;;;;;5.50;4.80;;;;;;;;;;2102020;28;20028;-65
2024/03/22 05:39:17;;;;;;;6.68;5.55;;;;;;;;;;2091755;28;20025;-65
2024/03/22 05:40:36;;;;;;;6.10;4.93;;;;;;;;;;2096998;28;20021;-66
2024/03/22 05:41:55;;;;;;;5.70;5.20;;;;;;;;;;2100568;28;20629;-65
2024/03/22 05:43:14;;;;;;;6.03;4.85;;;;;;;;;;2102157;28;20482;-65
2024/03/22 05:44:33;;;;;;;5.38;4.88;;;;;;;;;;2101908;28;20040;-66
2024/03/22 05:45:52;;;;;;;5.95;5.00;;;;;;;;;;2100841;28;20032;-65
2024/03/22 05:47:11;;;;;;;6.40;4.85;;;;;;;;;;2101225;28;20024;-65
2024/03/22 05:48:30;;;;;;;5.32;4.82;;;;;;;;;;2101755;28;20115;-65
2024/03/22 05:49:49;;;;;;;6.03;4.70;;;;;;;;;;2100524;28;20421;-65
2024/03/22 05:51:07;;;;;;;5.28;4.78;;;;;;;;;;2101033;28;20016;-65
2024/03/22 05:52:27;;;;;;;6.25;5.15;;;;;;;;;;2100611;28;20020;-65
2024/03/22 05:53:46;;;;;;;6.80;5.00;;;;;;;;;;2101017;28;20440;-65
2024/03/22 05:55:06;;;;;;;5.55;5.00;;;;;;;;;;2100813;28;20025;-65
2024/03/22 05:56:25;;;;;;;8.68;5.30;;;;;;;;;;2101160;28;20500;-65
2024/03/22 05:57:44;;;;;;;10.50;5.25;;;;;;;;;;2100875;28;20519;-65
2024/03/22 05:59:03;;;;;;;5.60;5.05;;;;;;;;;;2101315;28;20017;-65
2024/03/22 06:00:22;;;;;;;7.50;5.43;;;;;;;;;;2100072;28;20045;-66
2024/03/22 06:01:41;;;;;;;6.97;5.18;;;;;;;;;;2100179;28;20024;-65
2024/03/22 06:03:00;;;;;;;5.60;4.88;;;;;;;;;;2101030;28;20485;-65
2024/03/22 06:04:19;;;;;;;6.30;4.95;;;;;;;;;;2101955;28;20040;-65
2024/03/22 06:05:38;;;;;;;5.72;4.88;;;;;;;;;;2101571;28;20502;-65
2024/03/22 06:06:59;;;;;;;6.43;5.00;;;;;;;;;;2100381;28;20036;-65
2024/03/22 06:08:20;;;;;;;6.38;5.18;;;;;;;;;;2100466;28;20067;-65
2024/03/22 06:09:48;;;;;;;6.40;5.80;;;;;;;;;;2100515;28;20032;-66
2024/03/22 06:11:07;;;;;;;5.72;5.20;;;;;;;;;;2092034;28;20041;-66
2024/03/22 06:12:27;;;;;;;5.68;4.95;;;;;;;;;;2097621;28;20033;-65
2024/03/22 06:13:45;;;;;;;7.25;5.07;;;;;;;;;;2099972;28;20020;-66
2024/03/22 06:15:06;;;;;;;6.70;5.57;;;;;;;;;;2100959;28;20418;-65
2024/03/22 06:16:25;;;;;;;7.45;5.40;;;;;;;;;;2099311;28;20021;-66
2024/03/22 06:17:45;;;;;;;5.85;5.32;;;;;;;;;;2100750;28;20035;-65
2024/03/22 06:19:04;;;;;;;5.57;4.95;;;;;;;;;;2101335;28;20142;-65
2024/03/22 06:20:23;;;;;;;5.63;5.13;;;;;;;;;;2100878;28;20540;-65
2024/03/22 06:21:42;;;;;;;5.55;4.95;;;;;;;;;;2100441;28;20040;-65
2024/03/22 06:23:01;;;;;;;6.10;5.05;;;;;;;;;;2091981;28;20030;-65
2024/03/22 06:24:20;;;;;;;7.88;5.57;;;;;;;;;;2091978;28;20033;-65
2024/03/22 06:25:39;;;;;;;6.18;5.03;;;;;;;;;;2097216;28;20024;-65
2024/03/22 06:26:58;;;;;;;5.20;4.55;;;;;;;;;;2099865;28;20483;-65
2024/03/22 06:28:17;;;;;;;5.97;4.82;;;;;;;;;;2100877;28;20032;-65
2024/03/22 06:29:36;;;;;;;5.88;4.45;;;;;;;;;;2100900;28;20107;-65
2024/03/22 06:30:55;;;;;;;6.40;4.70;;;;;;;;;;2100158;28;20029;-65
2024/03/22 06:32:14;;;;;;;5.32;4.55;;;;;;;;;;2100595;28;20032;-65
2024/03/22 06:33:33;;;;;;;7.40;5.15;;;;;;;;;;2101139;28;20623;-66
2024/03/22 06:34:52;;;;;;;9.43;5.38;;;;;;;;;;2101532;28;20036;-65
2024/03/22 06:36:11;;;;;;;6.97;4.85;;;;;;;;;;2101184;28;20032;-66
2024/03/22 06:37:30;;;;;;;6.35;4.95;;;;;;;;;;2100069;28;20025;-65
2024/03/22 06:38:49;;;;;;;5.03;4.63;;;;;;;;;;2100676;28;20033;-65
2024/03/22 06:40:09;;;;;;;5.05;4.65;;;;;;;;;;2100965;28;20052;-66
2024/03/22 06:41:28;;;;;;;5.80;4.40;;;;;;;;;;2100371;28;20028;-66
2024/03/22 06:42:47;;;;;;;5.57;4.20;;;;;;;;;;2101253;28;20032;-65
2024/03/22 06:44:06;;;;;;;4.03;3.72;;;;;;;;;;2101388;28;20020;-65
2024/03/22 06:45:25;;;;;;;4.40;4.10;;;;;;;;;;2100773;28;20024;-65
2024/03/22 06:46:44;;;;;;;4.13;3.80;;;;;;;;;;2100908;28;20035;-65
2024/03/22 06:48:04;;;;;;;4.45;4.05;;;;;;;;;;2091706;28;20460;-65
2024/03/22 06:49:22;;;;;;;4.22;3.90;;;;;;;;;;2088192;28;20025;-65
2024/03/22 06:50:42;;;;;;;4.65;4.25;;;;;;;;;;2097534;28;20028;-64
2024/03/22 06:52:01;;;;;;;4.63;4.10;;;;;;;;;;2100938;28;20036;-65
2024/03/22 06:53:20;;;;;;;5.07;3.85;;;;;;;;;;2100912;28;20024;-64
2024/03/22 06:54:38;;;;;;;5.07;3.95;;;;;;;;;;2091402;28;20059;-65
2024/03/22 06:55:57;;;;;;;4.45;4.03;;;;;;;;;;2096293;28;20028;-65
2024/03/22 06:57:16;;;;;;;4.07;3.78;;;;;;;;;;2101621;28;20024;-65
2024/03/22 06:58:36;;;;;;;4.43;4.13;;;;;;;;;;2100511;28;20071;-64
2024/03/22 06:59:55;;;;;;;6.90;3.85;;;;;;;;;;2100634;28;20024;-64
2024/03/22 07:01:14;;;;;;;5.05;4.35;;;;;;;;;;2100635;28;20103;-65
2024/03/22 07:02:33;;;;;;;5.03;3.92;;;;;;;;;;2091407;28;20033;-65
2024/03/22 07:03:52;;;;;;;5.13;3.97;;;;;;;;;;2097633;28;20028;-65
2024/03/22 07:05:11;;;;;;;5.78;4.00;;;;;;;;;;2100671;28;20016;-65
2024/03/22 07:06:30;;;;;;;4.60;3.67;;;;;;;;;;2100465;28;20024;-65
2024/03/22 07:07:55;;;;;;;4.82;4.40;;;;;;;;;;2092427;28;20405;-65
2024/03/22 07:09:15;;;;;;;4.25;3.85;;;;;;;;;;2098236;28;20028;-65
2024/03/22 07:10:34;;;;;;;4.25;3.95;;;;;;;;;;2092591;28;20037;-65
2024/03/22 07:11:53;;;;;;;4.18;3.88;;;;;;;;;;2098306;28;20501;-65
2024/03/22 07:13:12;;;;;;;5.82;4.20;;;;;;;;;;2102316;28;20478;-65
2024/03/22 07:14:31;;;;;;;3.95;3.58;;;;;;;;;;2092825;28;20036;-65
2024/03/22 07:15:50;;;;;;;4.60;4.20;;;;;;;;;;2098810;28;20020;-65
2024/03/22 07:17:09;;;;;;;4.40;4.05;;;;;;;;;;2102440;28;20024;-65
2024/03/22 07:18:28;;;;;;;4.72;4.13;;;;;;;;;;2101834;28;20486;-64
2024/03/22 07:19:47;;;;;;;4.95;4.20;;;;;;;;;;2102442;28;20024;-65
2024/03/22 07:21:06;;;;;;;7.95;4.00;;;;;;;;;;2102135;28;20024;-65
2024/03/22 07:22:25;;;;;;;4.95;4.45;;;;;;;;;;2103403;28;20575;-65
2024/03/22 07:23:43;;;;;;;4.90;4.50;;;;;;;;;;2102945;28;20033;-65
2024/03/22 07:25:02;;;;;;;5.80;4.70;;;;;;;;;;2094604;28;20498;-64
2024/03/22 07:26:21;;;;;;;5.38;4.15;;;;;;;;;;2099369;28;20036;-64
2024/03/22 07:27:40;;;;;;;4.90;4.40;;;;;;;;;;2101696;28;20028;-65
2024/03/22 07:28:59;;;;;;;4.63;4.07;;;;;;;;;;2101466;28;20032;-65
2024/03/22 07:30:18;;;;;;;4.68;4.28;;;;;;;;;;2102990;28;20472;-65
2024/03/22 07:31:37;;;;;;;4.32;3.92;;;;;;;;;;2101192;28;20482;-65
2024/03/22 07:32:56;;;;;;;5.93;3.95;;;;;;;;;;2101712;28;20029;-65
2024/03/22 07:34:15;;;;;;;6.65;4.32;;;;;;;;;;2101689;28;20024;-64
2024/03/22 07:35:34;;;;;;;6.25;5.13;;;;;;;;;;2093766;28;20618;-65
2024/03/22 07:36:53;;;;;;;4.97;4.30;;;;;;;;;;2099448;28;20111;-66
2024/03/22 07:38:12;;;;;;;5.18;3.90;;;;;;;;;;2094193;28;20389;-66
2024/03/22 07:39:31;;;;;;;6.32;4.50;;;;;;;;;;2098466;28;20029;-64
2024/03/22 07:40:50;;;;;;;6.50;4.28;;;;;;;;;;2102140;28;20024;-65
2024/03/22 07:42:09;;;;;;;5.00;4.60;;;;;;;;;;2101722;28;20040;-64
2024/03/22 07:43:29;;;;;;;5.65;5.05;;;;;;;;;;2100691;28;20029;-65
2024/03/22 07:44:48;;;;;;;6.10;4.50;;;;;;;;;;2102317;28;20076;-64
2024/03/22 07:46:07;;;;;;;5.05;4.57;;;;;;;;;;2102584;28;20020;-65
2024/03/22 07:47:26;;;;;;;5.82;4.60;;;;;;;;;;2101640;28;20036;-65
2024/03/22 07:48:45;;;;;;;4.97;4.53;;;;;;;;;;2102153;28;20033;-65
2024/03/22 07:50:04;;;;;;;5.00;4.50;;;;;;;;;;2102029;28;20037;-64
2024/03/22 07:51:23;;;;;;;4.93;4.43;;;;;;;;;;2101371;28;20394;-64
2024/03/22 07:52:42;;;;;;;5.15;4.22;;;;;;;;;;2101691;28;20060;-65
2024/03/22 07:54:02;;;;;;;5.85;4.50;;;;;;;;;;2102498;28;20028;-64
2024/03/22 07:55:22;;;;;;;4.40;4.00;;;;;;;;;;2102100;28;20024;-65